Time;durP1;ratioP1;P1;durP2;ratioP2;P2;SDS_P1;SDS_P2;PMS_P1;PMS_P2;Temp;Humidity;BMP_temperature;BMP_pressure;BME280_temperature;BME280_humidity;BME280_pressure;Samples;Min_cycle;Max_cycle;Signal;HPM_P1;HPM_P2
2022/04/20 00:04:22;;;;;;;9.02;5.18;;;;;;;8.95;100.00;101881.25;10147219;28;20108;-66
2022/04/20 00:09:18;;;;;;;11.57;5.93;;;;;;;8.81;100.00;101881.84;10148538;28;20069;-63
2022/04/20 00:14:15;;;;;;;12.57;5.28;;;;;;;8.76;100.00;101883.78;10141909;28;20122;-67
2022/04/20 00:19:11;;;;;;;11.13;5.97;;;;;;;8.59;100.00;101884.91;10148399;28;20112;-66
2022/04/20 00:24:08;;;;;;;12.63;7.00;;;;;;;8.67;100.00;101891.69;10140003;28;20046;-65
2022/04/20 00:29:04;;;;;;;13.52;5.30;;;;;;;8.51;100.00;101888.19;10147175;28;20038;-66
2022/04/20 00:34:01;;;;;;;9.88;5.45;;;;;;;8.50;100.00;101892.00;10137355;28;20125;-66
2022/04/20 00:38:58;;;;;;;11.30;5.50;;;;;;;8.41;100.00;101888.19;10135615;28;20046;-64
2022/04/20 00:43:55;;;;;;;11.40;5.45;;;;;;;8.38;100.00;101883.28;10123962;28;20084;-64
2022/04/20 00:48:52;;;;;;;10.13;6.47;;;;;;;8.27;100.00;101876.19;10141488;28;20798;-65
2022/04/20 00:53:49;;;;;;;13.02;6.57;;;;;;;8.34;100.00;101879.47;10152451;28;20050;-65
2022/04/20 00:58:45;;;;;;;14.00;6.88;;;;;;;8.18;100.00;101890.34;10149036;28;20074;-66
2022/04/20 01:03:43;;;;;;;11.98;6.40;;;;;;;8.18;100.00;101890.34;10149703;28;20513;-66
2022/04/20 01:08:39;;;;;;;12.25;6.10;;;;;;;8.18;100.00;101887.63;10142359;28;20042;-65
2022/04/20 01:13:36;;;;;;;11.93;6.70;;;;;;;8.17;100.00;101885.19;10146322;28;20134;-65
2022/04/20 01:18:32;;;;;;;9.80;6.35;;;;;;;8.10;100.00;101880.03;10160681;28;20129;-65
2022/04/20 01:23:30;;;;;;;12.77;6.40;;;;;;;8.00;100.00;101869.09;10147993;28;20172;-66
2022/04/20 01:28:26;;;;;;;11.88;6.43;;;;;;;7.99;100.00;101864.75;10145811;28;20129;-66
2022/04/20 01:33:23;;;;;;;14.27;6.32;;;;;;;7.90;100.00;101863.66;10161683;28;20051;-67
2022/04/20 01:38:19;;;;;;;13.95;6.68;;;;;;;7.91;100.00;101857.94;10140407;28;20052;-66
2022/04/20 01:43:16;;;;;;;14.02;7.20;;;;;;;7.72;100.00;101854.94;10171148;28;20558;-66
2022/04/20 01:48:12;;;;;;;14.98;7.72;;;;;;;7.75;100.00;101857.13;10140344;28;20054;-66
2022/04/20 01:53:08;;;;;;;11.52;6.00;;;;;;;7.71;100.00;101861.47;10160399;28;20140;-65
2022/04/20 01:58:05;;;;;;;12.93;6.75;;;;;;;7.66;100.00;101856.03;10154712;28;20043;-65
2022/04/20 02:03:01;;;;;;;11.27;6.18;;;;;;;7.58;100.00;101851.91;10154381;28;20586;-65
2022/04/20 02:07:58;;;;;;;9.25;5.82;;;;;;;7.50;100.00;101862.53;10131866;28;20125;-67
2022/04/20 02:12:54;;;;;;;12.10;6.43;;;;;;;7.41;100.00;101853.25;10142747;28;20042;-67
2022/04/20 02:17:51;;;;;;;10.57;6.07;;;;;;;7.30;100.00;101858.66;10147351;28;20129;-68
2022/04/20 02:22:48;;;;;;;11.23;5.97;;;;;;;7.31;100.00;101854.88;10154638;28;20088;-67
2022/04/20 02:27:44;;;;;;;12.90;5.78;;;;;;;7.25;100.00;101861.38;10135205;28;20129;-65
2022/04/20 02:32:41;;;;;;;10.85;6.25;;;;;;;7.25;100.00;101866.81;10154942;28;20141;-66
2022/04/20 02:37:38;;;;;;;10.15;5.78;;;;;;;7.14;100.00;101865.13;10149124;28;20089;-66
2022/04/20 02:42:34;;;;;;;10.48;5.40;;;;;;;7.08;100.00;101877.09;10155419;28;20218;-66
2022/04/20 02:47:30;;;;;;;10.07;5.60;;;;;;;7.07;100.00;101876.25;10142409;28;20092;-66
2022/04/20 02:52:27;;;;;;;13.65;5.55;;;;;;;6.99;100.00;101874.06;10138944;28;20097;-66
2022/04/20 02:57:23;;;;;;;11.35;5.32;;;;;;;7.05;100.00;101877.63;10126395;28;20050;-66
2022/04/20 03:02:20;;;;;;;9.55;4.82;;;;;;;7.01;100.00;101887.38;10163036;28;20055;-64
2022/04/20 03:07:16;;;;;;;10.35;5.40;;;;;;;6.93;100.00;101881.38;10138045;28;20129;-64
2022/04/20 03:12:13;;;;;;;10.65;5.60;;;;;;;6.89;100.00;101874.84;10145269;28;20134;-65
2022/04/20 03:17:09;;;;;;;10.20;5.28;;;;;;;6.84;100.00;101872.06;10127062;28;20050;-66
2022/04/20 03:22:06;;;;;;;10.68;5.78;;;;;;;6.64;100.00;101869.28;10127224;28;20604;-65
2022/04/20 03:27:02;;;;;;;9.07;5.18;;;;;;;6.73;100.00;101862.25;10116847;28;20113;-66
2022/04/20 03:32:12;;;;;;;9.00;5.45;;;;;;;6.70;100.00;101862.75;10135469;28;20256;-64
2022/04/20 03:37:09;;;;;;;8.68;4.45;;;;;;;6.64;100.00;101863.84;10135084;28;20101;-65
2022/04/20 03:42:07;;;;;;;9.63;5.10;;;;;;;6.63;100.00;101870.34;10141093;28;20141;-65
2022/04/20 03:47:04;;;;;;;10.15;5.55;;;;;;;6.71;100.00;101872.56;10123341;28;20053;-66
2022/04/20 03:52:01;;;;;;;12.48;5.03;;;;;;;6.71;100.00;101872.56;10139628;28;20138;-64
2022/04/20 03:57:04;;;;;;;9.73;4.80;;;;;;;6.65;100.00;101868.19;10138891;28;20046;-65
2022/04/20 04:02:00;;;;;;;9.68;5.05;;;;;;;6.66;100.00;101869.81;10120241;28;20457;-65
2022/04/20 04:06:57;;;;;;;10.75;5.25;;;;;;;6.68;100.00;101867.66;10121590;28;20647;-65
2022/04/20 04:11:53;;;;;;;9.38;5.18;;;;;;;6.62;100.00;101871.44;10120422;28;20476;-65
2022/04/20 04:16:50;;;;;;;9.93;5.18;;;;;;;6.52;100.00;101875.72;10116438;28;20081;-64
2022/04/20 04:21:47;;;;;;;9.05;4.82;;;;;;;6.39;100.00;101876.16;10116423;28;20054;-64
2022/04/20 04:26:45;;;;;;;8.02;4.65;;;;;;;6.30;100.00;101883.16;10122824;28;20141;-64
2022/04/20 04:31:42;;;;;;;8.52;4.95;;;;;;;6.10;100.00;101868.38;10114548;28;20513;-65
2022/04/20 04:36:39;;;;;;;7.85;4.10;;;;;;;6.37;100.00;101867.47;10120171;28;20046;-65
2022/04/20 04:41:38;;;;;;;9.13;4.13;;;;;;;6.29;100.00;101873.41;10139030;28;20134;-66
2022/04/20 04:51:50;;;;;;;11.20;4.85;;;;;;;6.50;100.00;101877.06;10109219;28;20053;-65
2022/04/20 04:56:47;;;;;;;13.13;4.78;;;;;;;6.57;100.00;101877.66;10093069;28;20604;-65
2022/04/20 05:01:43;;;;;;;11.20;4.82;;;;;;;6.69;100.00;101875.53;10117156;28;20066;-65
2022/04/20 05:06:42;;;;;;;8.15;4.30;;;;;;;6.78;100.00;101872.31;10117437;28;20169;-65
2022/04/20 05:11:38;;;;;;;8.02;4.00;;;;;;;6.88;100.00;101865.03;10132657;28;20170;-66
2022/04/20 05:16:35;;;;;;;9.45;4.18;;;;;;;7.04;100.00;101870.56;10130107;28;20961;-66
2022/04/20 05:21:32;;;;;;;8.63;4.43;;;;;;;7.12;100.00;101861.88;10147463;28;20097;-65
2022/04/20 05:26:28;;;;;;;9.18;5.28;;;;;;;7.14;100.00;101859.69;10121907;28;21480;-65
2022/04/20 05:31:25;;;;;;;8.93;3.50;;;;;;;7.32;100.00;101861.94;10108176;28;20501;-65
2022/04/20 05:36:21;;;;;;;7.47;3.40;;;;;;;7.49;100.00;101866.31;10107236;28;20397;-66
2022/04/20 05:46:33;;;;;;;7.18;3.67;;;;;;;7.68;100.00;101891.97;10114592;28;20134;-65
2022/04/20 05:51:30;;;;;;;9.30;3.55;;;;;;;7.66;100.00;101894.13;10121608;28;20439;-65
2022/04/20 05:56:26;;;;;;;9.82;4.35;;;;;;;7.62;100.00;101893.03;10125253;28;20070;-66
2022/04/20 06:01:24;;;;;;;7.80;3.00;;;;;;;7.85;100.00;101888.19;10154863;28;20050;-66
2022/04/20 06:06:21;;;;;;;9.00;3.58;;;;;;;7.77;100.00;101890.34;10127736;28;20057;-65
2022/04/20 06:11:18;;;;;;;7.20;3.20;;;;;;;7.92;100.00;101886.00;10115316;28;20109;-66
2022/04/20 06:16:15;;;;;;;6.40;3.33;;;;;;;7.95;100.00;101891.72;10113944;28;20070;-65
2022/04/20 06:21:11;;;;;;;9.18;3.50;;;;;;;7.90;100.00;101882.72;10113686;28;20563;-65
2022/04/20 06:26:09;;;;;;;6.00;3.25;;;;;;;8.01;100.00;101889.81;10113841;28;20074;-65
2022/04/20 06:31:05;;;;;;;7.05;3.20;;;;;;;8.13;100.00;101887.63;10114896;28;20547;-65
2022/04/20 06:36:02;;;;;;;7.38;3.40;;;;;;;8.10;100.00;101877.28;10113575;28;20130;-66
2022/04/20 06:40:59;;;;;;;7.63;3.47;;;;;;;8.22;100.00;101880.56;10114113;28;20489;-65
2022/04/20 06:46:01;;;;;;;6.70;3.30;;;;;;;8.31;100.00;101871.81;10117609;28;20109;-65
2022/04/20 06:50:58;;;;;;;6.75;3.70;;;;;;;8.43;100.00;101866.94;10113466;28;20553;-65
2022/04/20 07:01:09;;;;;;;8.40;3.53;;;;;;;8.60;100.00;101867.44;10153034;28;20141;-65
2022/04/20 07:06:06;;;;;;;8.45;3.47;;;;;;;8.71;100.00;101870.16;10127326;28;20079;-65
2022/04/20 07:11:04;;;;;;;6.28;3.00;;;;;;;8.83;100.00;101865.19;10113023;28;20125;-65
2022/04/20 07:16:01;;;;;;;5.63;2.42;;;;;;;8.98;100.00;101859.69;10116170;28;20051;-65
2022/04/20 07:20:59;;;;;;;7.85;2.80;;;;;;;9.14;100.00;101873.25;10150359;28;20524;-63
2022/04/20 07:25:55;;;;;;;5.55;2.55;;;;;;;9.26;100.00;101866.41;10138155;28;20046;-63
2022/04/20 07:30:52;;;;;;;4.25;1.85;;;;;;;9.42;100.00;101869.84;10151911;28;20046;-63
2022/04/20 07:35:48;;;;;;;3.33;1.50;;;;;;;9.54;100.00;101882.31;10132961;28;20105;-63
2022/04/20 07:40:45;;;;;;;4.47;1.75;;;;;;;9.67;100.00;101881.69;10111662;28;20130;-63
2022/04/20 07:45:41;;;;;;;6.20;2.20;;;;;;;9.86;100.00;101879.94;10115166;28;20047;-63
2022/04/20 07:50:38;;;;;;;4.75;1.83;;;;;;;9.99;100.00;101885.84;10110770;28;20046;-63
2022/04/20 07:55:34;;;;;;;6.72;1.70;;;;;;;10.13;100.00;101884.09;10118195;28;20093;-63
2022/04/20 08:00:31;;;;;;;4.15;1.70;;;;;;;10.29;95.44;101888.34;10110639;28;20093;-63
2022/04/20 08:05:27;;;;;;;6.78;2.25;;;;;;;10.38;98.63;101874.88;10109734;28;20073;-63
2022/04/20 08:10:24;;;;;;;3.00;1.20;;;;;;;10.56;98.31;101875.25;10109969;28;20121;-64
2022/04/20 08:15:20;;;;;;;6.22;2.22;;;;;;;10.72;95.80;101874.81;10114676;28;20552;-64
2022/04/20 08:20:17;;;;;;;6.15;2.20;;;;;;;10.90;95.92;101877.88;10109794;28;20086;-63
2022/04/20 08:25:13;;;;;;;4.85;1.70;;;;;;;11.08;89.83;101871.66;10109691;28;20043;-64
2022/04/20 08:30:10;;;;;;;5.72;1.70;;;;;;;11.23;92.41;101883.50;10110099;28;20058;-64
2022/04/20 08:35:07;;;;;;;4.30;1.83;;;;;;;11.46;87.88;101874.41;10110318;28;20050;-64
2022/04/20 08:40:09;;;;;;;5.10;1.60;;;;;;;11.59;89.03;101857.25;10109135;28;20113;-64
2022/04/20 08:45:06;;;;;;;2.80;1.10;;;;;;;11.78;88.83;101861.91;10113034;28;20137;-64
2022/04/20 08:50:05;;;;;;;4.45;1.60;;;;;;;11.93;86.94;101858.97;10109624;28;20047;-64
2022/04/20 08:55:02;;;;;;;3.53;1.38;;;;;;;12.10;85.21;101857.59;10122140;28;20062;-64
2022/04/20 09:00:00;;;;;;;4.57;2.03;;;;;;;12.24;84.00;101858.44;10144685;28;20500;-63
2022/04/20 09:04:56;;;;;;;3.80;1.40;;;;;;;12.36;83.11;101856.00;10128766;28;20149;-64
2022/04/20 09:09:53;;;;;;;6.70;1.60;;;;;;;12.49;83.01;101859.09;10108988;28;20050;-64
2022/04/20 09:14:51;;;;;;;4.22;2.08;;;;;;;12.64;85.31;101845.06;10112494;28;20082;-63
2022/04/20 09:19:53;;;;;;;6.50;1.75;;;;;;;12.80;84.96;101849.13;10116530;28;20046;-64
2022/04/20 09:25:14;;;;;;;7.07;1.80;;;;;;;13.10;85.34;101838.66;10124650;28;20481;-64
2022/04/20 09:30:16;;;;;;;6.35;2.15;;;;;;;13.38;79.99;101841.38;10144979;28;20059;-63
2022/04/20 09:35:14;;;;;;;5.75;1.63;;;;;;;13.59;76.75;101856.25;10122328;28;20129;-63
2022/04/20 09:40:13;;;;;;;4.78;1.70;;;;;;;13.92;75.09;101845.03;10128863;28;20050;-63
2022/04/20 09:45:11;;;;;;;4.70;1.52;;;;;;;14.12;74.46;101834.66;10123663;28;20137;-63
2022/04/20 09:50:08;;;;;;;3.85;1.27;;;;;;;14.55;68.72;101834.06;10124139;28;20078;-63
2022/04/20 09:55:07;;;;;;;4.10;1.50;;;;;;;15.11;66.37;101824.22;10124566;28;20054;-63
2022/04/20 10:00:12;;;;;;;3.40;1.02;;;;;;;16.17;62.22;101813.59;10119790;28;20140;-63
2022/04/20 10:05:19;;;;;;;3.38;1.00;;;;;;;17.42;55.33;101817.81;10114971;28;20051;-63
2022/04/20 10:10:19;;;;;;;3.97;1.08;;;;;;;18.72;52.20;101814.81;10114853;28;20058;-63
2022/04/20 10:20:33;;;;;;;3.47;1.00;;;;;;;20.36;51.48;101807.66;10146100;28;20496;-64
2022/04/20 10:25:30;;;;;;;4.68;1.45;;;;;;;20.23;40.45;101811.69;10126436;28;20070;-63
2022/04/20 10:30:58;;;;;;;3.25;1.42;;;;;;;21.26;42.81;101793.09;10134048;28;20113;-63
2022/04/20 10:36:04;;;;;;;3.80;1.48;;;;;;;21.10;41.16;101795.94;10118038;28;20421;-63
2022/04/20 10:41:03;;;;;;;4.05;1.50;;;;;;;21.45;39.02;101789.53;10114598;28;20042;-63
2022/04/20 10:46:17;;;;;;;4.68;1.05;;;;;;;21.68;36.93;101786.00;10113292;28;20053;-63
2022/04/20 10:51:22;;;;;;;4.43;1.10;;;;;;;22.05;37.21;101795.44;10113998;28;20059;-63
2022/04/20 10:56:20;;;;;;;2.53;1.10;;;;;;;22.28;37.58;101786.31;10131457;28;20054;-63
2022/04/20 11:01:16;;;;;;;4.18;1.10;;;;;;;22.14;36.82;101780.47;10152800;28;20513;-63
2022/04/20 11:06:13;;;;;;;3.05;1.23;;;;;;;22.13;37.73;101767.72;10125765;28;20047;-63
2022/04/20 11:21:33;;;;;;;2.47;1.20;;;;;;;22.59;37.65;101784.44;10111330;28;20054;-63
2022/04/20 11:26:39;;;;;;;3.83;1.05;;;;;;;23.03;36.70;101769.94;10111008;28;20137;-63
2022/04/20 11:31:48;;;;;;;4.43;1.20;;;;;;;22.93;36.62;101768.59;10112081;28;20062;-63
2022/04/20 11:36:51;;;;;;;3.53;1.13;;;;;;;22.55;34.74;101755.69;10115174;28;20053;-63
2022/04/20 11:41:49;;;;;;;5.10;1.20;;;;;;;23.12;35.71;101759.31;10112194;28;20762;-63
2022/04/20 11:46:46;;;;;;;2.45;1.05;;;;;;;23.07;36.17;101760.44;10115732;28;20055;-63
2022/04/20 11:52:00;;;;;;;9.07;1.05;;;;;;;22.75;36.01;101751.63;10111723;28;20119;-62
2022/04/20 11:56:56;;;;;;;3.30;1.10;;;;;;;21.17;37.53;101746.03;10117026;28;20054;-62
2022/04/20 12:01:54;;;;;;;4.18;1.30;;;;;;;21.26;34.74;101736.63;10111175;28;20058;-63
2022/04/20 12:06:52;;;;;;;4.25;1.23;;;;;;;21.19;37.46;101738.13;10129314;28;20083;-62
2022/04/20 12:11:54;;;;;;;4.25;1.40;;;;;;;20.02;38.46;101741.75;10146293;28;20584;-63
2022/04/20 12:16:55;;;;;;;2.65;1.10;;;;;;;20.16;41.26;101736.53;10108869;28;20121;-63
2022/04/20 12:21:52;;;;;;;3.45;0.90;;;;;;;20.72;41.38;101747.41;10110146;28;20146;-63
2022/04/20 12:26:50;;;;;;;4.05;1.08;;;;;;;21.02;40.81;101738.53;10131674;28;20062;-63
2022/04/20 12:31:49;;;;;;;3.33;1.23;;;;;;;22.41;39.27;101722.84;10123748;28;20058;-63
2022/04/20 12:37:08;;;;;;;2.20;1.00;;;;;;;22.76;37.62;101722.53;10123141;28;20055;-63
2022/04/20 12:42:09;;;;;;;2.58;0.82;;;;;;;22.39;36.16;101717.63;10109749;28;20298;-63
2022/04/20 12:47:06;;;;;;;4.43;0.90;;;;;;;22.08;37.76;101704.78;10132576;28;20047;-63
2022/04/20 12:52:10;;;;;;;4.05;1.20;;;;;;;21.76;35.84;101709.81;10149107;28;20137;-63
2022/04/20 13:02:29;;;;;;;3.33;1.17;;;;;;;21.71;35.13;101696.19;10109765;28;20046;-63
2022/04/20 13:07:25;;;;;;;4.57;1.00;;;;;;;22.12;37.80;101693.69;10130838;28;20050;-63
2022/04/20 13:12:22;;;;;;;2.85;0.90;;;;;;;21.69;35.33;101688.22;10147307;28;20426;-63
2022/04/20 13:17:18;;;;;;;6.07;1.23;;;;;;;21.43;35.39;101697.28;10135301;28;20093;-63
2022/04/20 13:22:15;;;;;;;2.45;0.80;;;;;;;20.68;35.73;101696.53;10142205;28;20499;-63
2022/04/20 13:32:29;;;;;;;2.75;0.90;;;;;;;21.06;38.46;101681.03;10121892;28;20697;-63
2022/04/20 13:37:25;;;;;;;3.35;0.70;;;;;;;21.27;42.17;101679.84;10129007;28;20559;-63
2022/04/20 13:42:22;;;;;;;3.83;1.10;;;;;;;21.67;42.07;101675.84;10110506;28;20047;-63
2022/04/20 13:47:19;;;;;;;5.63;0.98;;;;;;;21.43;40.34;101658.34;10121174;28;20133;-63
2022/04/20 13:52:15;;;;;;;2.08;0.65;;;;;;;22.16;38.23;101661.13;10110349;28;20086;-63
2022/04/20 13:57:12;;;;;;;1.67;0.60;;;;;;;22.46;41.22;101664.81;10117314;28;20046;-63
2022/04/20 14:02:09;;;;;;;2.33;0.70;;;;;;;22.88;38.86;101662.94;10114182;28;20046;-62
2022/04/20 14:07:05;;;;;;;1.83;0.80;;;;;;;22.88;36.08;101668.53;10142048;28;20056;-61
2022/04/20 14:12:03;;;;;;;2.10;0.55;;;;;;;23.06;39.29;101661.22;10144770;28;20058;-61
2022/04/20 14:17:00;;;;;;;3.25;1.13;;;;;;;23.33;34.95;101657.53;10133202;28;20054;-61
2022/04/20 14:21:57;;;;;;;3.55;0.75;;;;;;;23.53;36.14;101653.31;10135321;28;20050;-64
2022/04/20 14:32:48;;;;;;;;;;;;;;;22.47;42.39;101660.84;10190939;28;20063;-63
2022/04/20 14:37:45;;;;;;;3.75;1.17;;;;;;;21.75;43.92;101652.53;10152353;28;19925;-63
2022/04/20 14:42:43;;;;;;;3.22;0.93;;;;;;;21.52;42.52;101656.13;10154064;28;20512;-63
2022/04/20 14:47:39;;;;;;;3.08;0.90;;;;;;;21.29;46.76;101635.78;10139800;28;20137;-63
2022/04/20 14:52:36;;;;;;;3.15;1.17;;;;;;;21.23;45.96;101644.44;10154795;28;20125;-63
2022/04/20 14:57:32;;;;;;;2.15;0.90;;;;;;;21.13;46.57;101638.69;10129347;28;20469;-63
2022/04/20 15:02:31;;;;;;;2.70;0.57;;;;;;;21.03;50.83;101637.31;10114963;28;20093;-63
2022/04/20 15:07:28;;;;;;;5.53;0.90;;;;;;;20.79;47.16;101641.16;10127179;28;20691;-64
2022/04/20 15:12:24;;;;;;;2.78;1.10;;;;;;;20.61;44.77;101640.81;10135345;28;20762;-63
2022/04/20 15:17:21;;;;;;;3.08;1.23;;;;;;;20.81;52.52;101633.28;10127583;28;20116;-63
2022/04/20 15:22:18;;;;;;;0.80;0.40;;;;;;;21.06;47.48;101628.22;10130290;28;20050;-62
2022/04/20 15:27:14;;;;;;;2.95;0.80;;;;;;;21.21;49.81;101624.53;10130345;28;20450;-62
2022/04/20 15:32:11;;;;;;;2.72;0.80;;;;;;;21.19;46.49;101626.88;10126282;28;20054;-62
2022/04/20 15:37:08;;;;;;;1.77;0.65;;;;;;;21.35;51.07;101623.16;10129043;28;20047;-63
2022/04/20 15:42:05;;;;;;;2.35;0.85;;;;;;;21.71;43.17;101618.28;10129897;28;20069;-63
2022/04/20 15:47:01;;;;;;;2.85;0.85;;;;;;;21.61;46.97;101614.94;10147929;28;20549;-63
2022/04/20 15:51:59;;;;;;;2.08;0.90;;;;;;;20.79;44.39;101608.66;10151212;28;20097;-62
2022/04/20 16:02:10;;;;;;;2.08;0.70;;;;;;;19.90;61.05;101604.66;10147126;28;20133;-62
2022/04/20 16:07:08;;;;;;;3.47;1.70;;;;;;;19.74;59.91;101609.44;10108846;28;20061;-61
2022/04/20 16:12:05;;;;;;;4.65;1.50;;;;;;;19.48;53.37;101598.84;10123380;28;20116;-61
2022/04/20 16:17:02;;;;;;;6.28;1.70;;;;;;;19.09;59.08;101596.63;10111344;28;20665;-62
2022/04/20 16:21:59;;;;;;;6.07;1.70;;;;;;;18.95;60.31;101612.09;10121467;28;20126;-61
2022/04/20 16:26:56;;;;;;;3.47;1.33;;;;;;;18.85;75.18;101613.41;10135674;28;20083;-61
2022/04/20 16:31:52;;;;;;;4.10;1.95;;;;;;;18.57;79.25;101600.31;10146197;28;20116;-61
2022/04/20 16:36:53;;;;;;;3.17;1.70;;;;;;;18.37;80.60;101598.50;10141701;28;20488;-61
2022/04/20 16:41:50;;;;;;;3.63;1.42;;;;;;;18.66;76.75;101600.97;10111676;28;20051;-61
2022/04/20 16:46:47;;;;;;;5.38;1.60;;;;;;;18.70;74.65;101606.59;10124404;28;20055;-60
2022/04/20 16:51:44;;;;;;;3.65;1.50;;;;;;;18.45;76.99;101605.88;10136578;28;20054;-61
2022/04/20 16:56:40;;;;;;;6.55;1.58;;;;;;;18.13;64.69;101594.63;10131601;28;20069;-62
2022/04/20 17:01:37;;;;;;;4.43;2.30;;;;;;;18.04;73.71;101602.25;10143607;28;20521;-61
2022/04/20 17:06:34;;;;;;;3.83;1.63;;;;;;;18.08;93.35;101595.69;10122856;28;20130;-61
2022/04/20 17:11:31;;;;;;;4.32;1.90;;;;;;;18.01;68.93;101594.63;10110059;28;20071;-61
2022/04/20 17:16:29;;;;;;;4.18;1.92;;;;;;;17.39;67.08;101597.34;10120293;28;20046;-61
2022/04/20 17:26:41;;;;;;;7.93;3.00;;;;;;;17.43;62.00;101595.53;10104923;28;20190;-63
2022/04/20 17:31:42;;;;;;;6.63;2.90;;;;;;;16.89;72.25;101594.78;10103078;28;20117;-63
2022/04/20 17:36:39;;;;;;;7.72;3.63;;;;;;;16.34;65.60;101594.72;10102127;28;20061;-62
2022/04/20 17:41:38;;;;;;;7.90;2.83;;;;;;;16.53;89.37;101602.53;10113934;28;20043;-63
2022/04/20 17:46:35;;;;;;;9.13;4.70;;;;;;;15.80;65.97;101602.03;10108208;28;20051;-63
2022/04/20 17:51:34;;;;;;;6.07;3.75;;;;;;;15.69;86.40;101613.41;10113784;28;20050;-62
2022/04/20 17:56:32;;;;;;;9.93;3.75;;;;;;;15.46;67.80;101612.84;10117290;28;20055;-62
2022/04/20 18:01:30;;;;;;;9.13;3.67;;;;;;;15.44;69.51;101617.06;10118004;28;20078;-62
2022/04/20 18:06:27;;;;;;;5.32;2.67;;;;;;;15.28;69.07;101625.84;10119928;28;20130;-60
2022/04/20 18:11:24;;;;;;;5.15;2.25;;;;;;;15.25;67.63;101626.50;10118322;28;20051;-62
2022/04/20 18:16:21;;;;;;;7.47;2.40;;;;;;;15.11;68.31;101625.91;10119898;28;20109;-64
2022/04/20 18:21:17;;;;;;;6.13;2.00;;;;;;;15.00;73.00;101625.41;10134116;28;20050;-64
2022/04/20 18:26:14;;;;;;;5.10;1.48;;;;;;;14.78;76.82;101637.41;10121600;28;20152;-64
2022/04/20 18:31:11;;;;;;;4.90;1.90;;;;;;;14.56;70.34;101646.63;10154805;28;20107;-63
2022/04/20 18:36:09;;;;;;;5.07;2.05;;;;;;;14.46;70.05;101646.91;10130537;28;20582;-63
2022/04/20 18:41:05;;;;;;;4.82;2.00;;;;;;;14.24;71.41;101647.84;10150335;28;20137;-63
2022/04/20 18:46:08;;;;;;;4.82;1.75;;;;;;;14.09;72.90;101647.16;10133470;28;20141;-63
2022/04/20 18:51:04;;;;;;;6.78;1.70;;;;;;;13.95;72.35;101662.13;10140155;28;20531;-63
2022/04/20 19:01:16;;;;;;;3.63;1.60;;;;;;;13.76;72.41;101665.13;10143047;28;20054;-63
2022/04/20 19:06:13;;;;;;;4.72;1.60;;;;;;;13.66;72.82;101667.00;10130047;28;20050;-63
2022/04/20 19:11:14;;;;;;;5.07;1.58;;;;;;;13.59;74.75;101658.41;10128941;28;20152;-63
2022/04/20 19:16:11;;;;;;;7.30;1.60;;;;;;;13.42;76.40;101661.06;10124329;28;20130;-65
2022/04/20 19:21:07;;;;;;;2.97;1.33;;;;;;;13.25;77.57;101661.72;10124376;28;20043;-64
2022/04/20 19:26:04;;;;;;;3.35;1.48;;;;;;;13.21;78.34;101669.00;10130428;28;20141;-63
2022/04/20 19:31:01;;;;;;;3.28;1.77;;;;;;;13.15;78.82;101668.28;10133564;28;20058;-67
2022/04/20 19:35:57;;;;;;;4.13;1.70;;;;;;;13.02;82.76;101669.97;10135326;28;20051;-65
2022/04/20 19:40:54;;;;;;;4.28;1.80;;;;;;;12.91;84.06;101665.84;10140020;28;20850;-66
2022/04/20 19:45:51;;;;;;;4.28;1.90;;;;;;;12.84;84.91;101669.03;10141727;28;20054;-65
2022/04/20 19:50:48;;;;;;;4.18;1.95;;;;;;;12.75;86.46;101670.88;10138045;28;20668;-65
2022/04/20 19:55:44;;;;;;;4.47;2.28;;;;;;;12.58;85.65;101665.25;10142433;28;20051;-66
2022/04/20 20:00:43;;;;;;;4.35;2.22;;;;;;;12.46;86.85;101653.97;10142124;28;20047;-66
2022/04/20 20:05:40;;;;;;;5.78;2.10;;;;;;;12.34;88.43;101655.31;10123153;28;20042;-64
2022/04/20 20:10:37;;;;;;;5.35;2.05;;;;;;;12.25;89.19;101650.84;10124344;28;20762;-64
2022/04/20 20:15:33;;;;;;;4.57;2.10;;;;;;;12.26;89.90;101657.97;10129715;28;20070;-63
2022/04/20 20:20:30;;;;;;;5.32;2.00;;;;;;;12.15;90.15;101651.88;10137935;28;20053;-63
2022/04/20 20:30:43;;;;;;;5.47;2.33;;;;;;;12.07;92.96;101649.84;10140186;28;20043;-63
2022/04/20 20:35:40;;;;;;;5.10;2.13;;;;;;;12.03;93.78;101638.69;10141349;28;20078;-62
2022/04/20 20:40:36;;;;;;;6.25;2.63;;;;;;;11.87;94.06;101646.41;10143729;28;20504;-63
2022/04/20 20:45:33;;;;;;;5.30;2.55;;;;;;;11.88;95.42;101642.56;10146339;28;20101;-62
2022/04/20 20:50:35;;;;;;;7.72;2.65;;;;;;;11.81;97.58;101642.09;10147405;28;20038;-62
2022/04/20 20:55:32;;;;;;;7.18;3.10;;;;;;;11.75;96.92;101637.84;10140527;28;20050;-62
2022/04/20 21:00:31;;;;;;;6.63;2.58;;;;;;;11.62;98.38;101639.44;10146340;28;20046;-63
2022/04/20 21:05:28;;;;;;;7.68;3.05;;;;;;;11.48;100.00;101639.41;10136918;28;20130;-64
2022/04/20 21:10:25;;;;;;;4.68;2.60;;;;;;;11.38;100.00;101645.09;10150421;28;20382;-63
2022/04/20 21:15:21;;;;;;;5.53;2.70;;;;;;;11.31;100.00;101645.47;10152258;28;20609;-63
2022/04/20 21:20:18;;;;;;;4.88;2.33;;;;;;;11.22;100.00;101651.94;10154389;28;20137;-63
2022/04/20 21:25:15;;;;;;;5.25;2.53;;;;;;;11.08;100.00;101652.69;10134459;28;20054;-63
2022/04/20 21:30:13;;;;;;;6.97;2.90;;;;;;;10.98;100.00;101647.41;10148382;28;20101;-63
2022/04/20 21:35:09;;;;;;;8.75;3.20;;;;;;;10.91;100.00;101646.97;10147835;28;20723;-64
2022/04/20 21:40:07;;;;;;;5.40;3.00;;;;;;;10.90;100.00;101650.78;10146756;28;20078;-64
2022/04/20 21:45:04;;;;;;;6.10;2.78;;;;;;;10.71;100.00;101648.88;10153158;28;20120;-64
2022/04/20 21:50:06;;;;;;;8.98;2.92;;;;;;;10.73;100.00;101651.31;10144905;28;20207;-64
2022/04/20 21:55:03;;;;;;;8.73;2.87;;;;;;;10.65;100.00;101655.53;10172174;28;20057;-64
2022/04/20 22:00:00;;;;;;;6.45;3.30;;;;;;;10.72;100.00;101656.00;10150932;28;20102;-64
2022/04/20 22:10:13;;;;;;;7.65;3.45;;;;;;;10.64;100.00;101658.56;10150245;28;20061;-65
2022/04/20 22:15:11;;;;;;;8.73;3.22;;;;;;;10.53;100.00;101646.94;10149445;28;20103;-65
2022/04/20 22:20:10;;;;;;;5.47;2.95;;;;;;;10.42;100.00;101662.69;10149384;28;20054;-65
2022/04/20 22:25:08;;;;;;;5.28;2.78;;;;;;;10.46;100.00;101651.97;10142275;28;20528;-65
2022/04/20 22:30:06;;;;;;;7.57;3.03;;;;;;;10.31;100.00;101648.34;10148491;28;20077;-65
2022/04/20 22:35:03;;;;;;;6.70;3.28;;;;;;;10.28;100.00;101650.78;10148210;28;20061;-65
2022/04/20 22:39:59;;;;;;;6.70;3.00;;;;;;;10.17;100.00;101650.13;10135574;28;20055;-65
2022/04/20 22:44:56;;;;;;;5.88;3.58;;;;;;;10.08;100.00;101654.59;10138986;28;20050;-66
2022/04/20 22:49:52;;;;;;;6.35;3.15;;;;;;;10.01;100.00;101656.88;10147653;28;20057;-65
2022/04/20 22:54:49;;;;;;;8.48;3.72;;;;;;;9.93;100.00;101655.59;10154280;28;20116;-65
2022/04/20 22:59:47;;;;;;;9.40;3.42;;;;;;;9.84;100.00;101647.22;10149054;28;20459;-66
2022/04/20 23:04:43;;;;;;;7.07;3.33;;;;;;;9.78;100.00;101642.91;10154239;28;20046;-64
2022/04/20 23:09:40;;;;;;;6.25;3.97;;;;;;;9.76;100.00;101645.13;10136335;28;20089;-65
2022/04/20 23:14:36;;;;;;;6.45;3.10;;;;;;;9.73;100.00;101647.63;10139793;28;20035;-65
2022/04/20 23:19:33;;;;;;;7.15;3.90;;;;;;;9.48;100.00;101647.59;10152714;28;20046;-64
2022/04/20 23:29:45;;;;;;;6.70;4.03;;;;;;;9.31;100.00;101639.03;10148744;28;20085;-66
2022/04/20 23:34:41;;;;;;;6.50;3.90;;;;;;;9.33;100.00;101636.00;10144932;28;20054;-64
2022/04/20 23:39:38;;;;;;;9.32;4.55;;;;;;;8.97;100.00;101639.84;10131552;28;20046;-63
2022/04/20 23:44:35;;;;;;;7.47;4.35;;;;;;;9.11;100.00;101641.91;10150832;28;20420;-63
2022/04/20 23:49:31;;;;;;;9.23;3.67;;;;;;;9.08;100.00;101629.66;10128354;28;20133;-63
2022/04/20 23:54:28;;;;;;;7.00;3.70;;;;;;;9.06;100.00;101638.13;10152839;28;20419;-65
2022/04/20 23:59:25;;;;;;;9.20;4.25;;;;;;;8.99;100.00;101636.84;10122821;28;20508;-65
